Time;durP1;ratioP1;P1;durP2;ratioP2;P2;SDS_P1;SDS_P2;PMS_P1;PMS_P2;Temp;Humidity;BMP_temperature;BMP_pressure;BME280_temperature;BME280_humidity;BME280_pressure;Samples;Min_cycle;Max_cycle;Signal;HPM_P1;HPM_P2
2024/02/06 17:14:30;;;;;;;;;28.00;28.00;;;;;;;;5104516;27;13496;-70
2024/02/06 17:16:56;;;;;;;;;30.75;26.00;;;;;;;;5101202;28;11610;-73
2024/02/06 17:19:21;;;;;;;;;23.50;21.25;;;;;;;;5105733;28;11648;-79
2024/02/06 17:21:46;;;;;;;;;25.00;24.25;;;;;;;;5107619;28;8906;-77
2024/02/06 17:24:12;;;;;;;;;30.00;26.25;;;;;;;;5107708;28;8807;-76
2024/02/06 17:26:37;;;;;;;;;28.50;24.50;;;;;;;;5107397;28;8827;-76
2024/02/06 17:29:02;;;;;;;;;25.50;23.00;;;;;;;;5105370;28;8795;-72
2024/02/06 17:31:27;;;;;;;;;27.25;26.00;;;;;;;;5103291;28;8784;-74
2024/02/06 17:33:53;;;;;;;;;27.75;25.00;;;;;;;;5107174;28;8825;-73
2024/02/06 17:36:18;;;;;;;;;38.75;32.00;;;;;;;;5120032;22;8800;-83
2024/02/06 17:38:44;;;;;;;;;28.25;23.25;;;;;;;;5085092;28;8853;-80
2024/02/06 17:41:11;;;;;;;;;34.75;32.25;;;;;;;;5089012;28;8826;-86
2024/02/06 17:43:36;;;;;;;;;37.50;30.75;;;;;;;;5097054;28;8799;-87
2024/02/06 17:46:02;;;;;;;;;35.75;29.75;;;;;;;;5100228;28;11466;-85
2024/02/06 17:48:27;;;;;;;;;31.50;29.75;;;;;;;;5094950;28;8840;-83
2024/02/06 17:50:54;;;;;;;;;33.75;33.00;;;;;;;;5098841;28;8800;-75
2024/02/06 17:53:19;;;;;;;;;40.75;35.00;;;;;;;;5088687;28;8854;-75
2024/02/06 17:55:45;;;;;;;;;37.50;35.00;;;;;;;;5099384;28;11558;-78
2024/02/06 17:58:10;;;;;;;;;38.50;34.50;;;;;;;;5094449;28;8831;-78
2024/02/06 18:00:36;;;;;;;;;36.75;35.00;;;;;;;;5097681;28;8868;-78
2024/02/06 18:03:03;;;;;;;;;40.75;36.25;;;;;;;;5096822;28;8810;-78
2024/02/06 18:05:28;;;;;;;;;39.25;35.00;;;;;;;;5099309;28;9581;-79
2024/02/06 18:07:53;;;;;;;;;32.50;29.75;;;;;;;;5086145;28;11537;-78
2024/02/06 18:10:18;;;;;;;;;32.50;30.75;;;;;;;;5097077;28;8926;-79
2024/02/06 18:12:44;;;;;;;;;35.00;34.00;;;;;;;;5097069;28;8958;-79
2024/02/06 18:15:09;;;;;;;;;38.75;30.50;;;;;;;;5095654;28;8919;-79
2024/02/06 18:17:35;;;;;;;;;37.75;31.00;;;;;;;;5099840;28;9608;-78
2024/02/06 18:20:00;;;;;;;;;37.25;34.25;;;;;;;;5097200;28;8808;-79
2024/02/06 18:22:26;;;;;;;;;31.00;28.00;;;;;;;;5092020;28;8800;-75
2024/02/06 18:24:52;;;;;;;;;37.50;34.00;;;;;;;;5085311;28;8813;-76
2024/02/06 18:27:17;;;;;;;;;36.00;33.25;;;;;;;;5083279;28;11542;-75
2024/02/06 18:29:44;;;;;;;;;38.50;32.25;;;;;;;;5082799;28;8796;-78
2024/02/06 18:32:09;;;;;;;;;37.00;32.00;;;;;;;;5083424;28;8807;-79
2024/02/06 18:34:37;;;;;;;;;34.75;28.75;;;;;;;;5083093;28;11538;-84
2024/02/06 18:37:03;;;;;;;;;38.25;34.50;;;;;;;;5072366;28;8814;-78
2024/02/06 18:39:30;;;;;;;;;37.50;29.25;;;;;;;;5068334;28;11552;-81
2024/02/06 18:41:55;;;;;;;;;39.00;35.00;;;;;;;;5083347;28;11526;-85
2024/02/06 18:44:20;;;;;;;;;37.00;35.00;;;;;;;;5083711;28;11544;-80
2024/02/06 18:46:46;;;;;;;;;41.25;37.25;;;;;;;;5084099;28;8792;-79
2024/02/06 18:49:11;;;;;;;;;41.75;35.25;;;;;;;;5080158;28;8787;-79
2024/02/06 18:51:36;;;;;;;;;37.75;34.75;;;;;;;;5080766;28;8829;-78
2024/02/06 18:54:02;;;;;;;;;40.50;35.75;;;;;;;;5073989;28;8894;-78
2024/02/06 18:56:27;;;;;;;;;34.25;29.25;;;;;;;;5082682;28;9537;-78
2024/02/06 18:58:52;;;;;;;;;33.75;29.00;;;;;;;;5081915;28;8799;-79
2024/02/06 19:01:18;;;;;;;;;33.00;30.75;;;;;;;;5081141;28;8908;-79
2024/02/06 19:03:43;;;;;;;;;33.00;30.25;;;;;;;;5081770;28;9554;-79
2024/02/06 19:06:09;;;;;;;;;33.50;29.25;;;;;;;;5080959;28;8898;-87
2024/02/06 19:08:34;;;;;;;;;29.00;27.50;;;;;;;;5078471;28;8799;-85
2024/02/06 19:10:59;;;;;;;;;38.75;31.25;;;;;;;;5073432;28;8940;-80
2024/02/06 19:13:25;;;;;;;;;36.00;30.25;;;;;;;;5078703;28;8823;-81
2024/02/06 19:15:50;;;;;;;;;32.25;29.50;;;;;;;;5081619;28;8933;-78
2024/02/06 19:18:16;;;;;;;;;33.50;30.75;;;;;;;;4992913;28;10462;-76
2024/02/06 19:20:41;;;;;;;;;36.50;34.00;;;;;;;;5017774;28;8918;-73
2024/02/06 19:23:07;;;;;;;;;31.25;28.75;;;;;;;;5007560;28;8871;-76
2024/02/06 19:25:32;;;;;;;;;32.00;28.75;;;;;;;;5010141;28;9541;-74
2024/02/06 19:27:57;;;;;;;;;39.00;34.75;;;;;;;;5011647;28;8816;-72
2024/02/06 19:30:23;;;;;;;;;35.25;30.25;;;;;;;;5009690;28;9608;-72
2024/02/06 19:32:48;;;;;;;;;19.50;16.00;;;;;;;;5012312;28;8986;-71
2024/02/06 19:35:13;;;;;;;;;31.75;28.00;;;;;;;;5010562;28;8831;-71
2024/02/06 19:37:39;;;;;;;;;31.75;29.00;;;;;;;;5008848;28;8832;-71
2024/02/06 19:40:04;;;;;;;;;31.75;30.25;;;;;;;;5008503;28;8812;-71
2024/02/06 19:42:30;;;;;;;;;34.50;29.50;;;;;;;;5011532;28;8832;-71
2024/02/06 19:44:55;;;;;;;;;30.50;28.00;;;;;;;;5011752;28;8905;-72
2024/02/06 19:47:21;;;;;;;;;31.50;30.25;;;;;;;;5011303;28;8812;-71
2024/02/06 19:49:46;;;;;;;;;35.25;33.50;;;;;;;;5004927;28;9562;-71
2024/02/06 19:52:12;;;;;;;;;33.25;29.50;;;;;;;;5011572;28;8854;-71
2024/02/06 19:54:37;;;;;;;;;30.75;28.75;;;;;;;;5011546;28;8827;-71
2024/02/06 19:57:03;;;;;;;;;36.75;31.25;;;;;;;;5011651;28;8772;-71
2024/02/06 19:59:29;;;;;;;;;34.25;32.25;;;;;;;;5009921;28;8873;-72
2024/02/06 20:01:54;;;;;;;;;35.75;33.75;;;;;;;;5011423;28;11525;-71
2024/02/06 20:04:19;;;;;;;;;33.00;29.50;;;;;;;;5011410;28;8812;-70
2024/02/06 20:06:44;;;;;;;;;35.75;32.25;;;;;;;;5011194;28;8808;-73
2024/02/06 20:09:11;;;;;;;;;36.50;35.50;;;;;;;;5007930;28;8818;-73
2024/02/06 20:11:40;;;;;;;;;37.75;32.75;;;;;;;;5009620;28;8988;-73
2024/02/06 20:14:07;;;;;;;;;34.00;32.75;;;;;;;;5005092;28;11582;-72
2024/02/06 20:16:33;;;;;;;;;34.50;32.00;;;;;;;;5004922;28;11555;-72
2024/02/06 20:18:58;;;;;;;;;37.75;31.75;;;;;;;;5003552;28;11592;-72
2024/02/06 20:21:26;;;;;;;;;36.25;32.00;;;;;;;;5006730;28;8893;-72
2024/02/06 20:23:52;;;;;;;;;36.50;33.25;;;;;;;;5004661;28;8812;-72
2024/02/06 20:26:18;;;;;;;;;33.00;30.25;;;;;;;;5002698;28;11540;-72
2024/02/06 20:28:43;;;;;;;;;35.00;32.00;;;;;;;;5007115;28;8804;-72
2024/02/06 20:31:08;;;;;;;;;35.00;33.50;;;;;;;;5004737;28;8832;-72
2024/02/06 20:33:33;;;;;;;;;38.25;33.50;;;;;;;;5003055;28;9461;-72
2024/02/06 20:35:59;;;;;;;;;27.50;23.25;;;;;;;;5002318;28;8836;-72
2024/02/06 20:38:25;;;;;;;;;33.00;31.25;;;;;;;;5002610;28;8807;-72
2024/02/06 20:40:50;;;;;;;;;37.00;33.75;;;;;;;;5001921;28;8804;-72
2024/02/06 20:43:15;;;;;;;;;40.25;36.00;;;;;;;;5006405;28;11542;-72
2024/02/06 20:45:41;;;;;;;;;26.75;23.25;;;;;;;;5010458;28;8910;-72
2024/02/06 20:48:07;;;;;;;;;26.25;26.00;;;;;;;;5010693;28;8800;-72
2024/02/06 20:50:33;;;;;;;;;33.75;26.75;;;;;;;;5010691;28;8796;-71
2024/02/06 20:52:58;;;;;;;;;33.25;28.00;;;;;;;;5008703;28;11553;-73
2024/02/06 20:55:23;;;;;;;;;33.00;27.75;;;;;;;;5009790;28;11541;-73
2024/02/06 20:57:49;;;;;;;;;34.50;31.25;;;;;;;;5010738;28;9526;-73
2024/02/06 21:00:14;;;;;;;;;34.50;31.00;;;;;;;;5010971;28;8834;-74
2024/02/06 21:02:40;;;;;;;;;33.75;28.75;;;;;;;;5010669;28;8871;-74
2024/02/06 21:05:05;;;;;;;;;30.75;26.50;;;;;;;;4773581;28;11763;-74
2024/02/06 21:43:45;;;;;;;;;28.50;26.25;;;;;;;;5097746;27;13442;-78
2024/02/06 21:46:11;;;;;;;;;28.25;26.00;;;;;;;;5086910;28;11494;-75
2024/02/06 21:48:37;;;;;;;;;24.75;24.25;;;;;;;;5085844;28;8891;-75
2024/02/06 21:51:02;;;;;;;;;28.50;28.50;;;;;;;;5103112;28;9583;-75
2024/02/06 21:53:27;;;;;;;;;25.00;25.00;;;;;;;;5087773;28;8802;-75
2024/02/06 21:55:52;;;;;;;;;26.00;25.25;;;;;;;;5087633;28;8802;-75
2024/02/06 21:58:18;;;;;;;;;27.50;22.25;;;;;;;;5087752;28;9605;-76
2024/02/06 22:00:43;;;;;;;;;30.00;30.00;;;;;;;;5103587;28;8833;-77
2024/02/06 22:03:08;;;;;;;;;30.25;27.75;;;;;;;;5087695;28;8864;-76
2024/02/06 22:05:34;;;;;;;;;34.75;27.50;;;;;;;;5086180;28;8830;-73
2024/02/06 22:07:59;;;;;;;;;31.75;27.00;;;;;;;;5087608;28;8810;-77
2024/02/06 22:10:25;;;;;;;;;28.50;27.00;;;;;;;;5087723;28;8766;-79
2024/02/06 22:12:50;;;;;;;;;34.75;28.75;;;;;;;;5087715;28;8798;-75
2024/02/06 22:15:16;;;;;;;;;27.25;25.00;;;;;;;;5089143;28;11540;-76
2024/02/06 22:17:41;;;;;;;;;32.00;28.00;;;;;;;;5086935;28;8783;-75
2024/02/06 22:20:07;;;;;;;;;27.25;24.50;;;;;;;;5086537;28;8814;-75
2024/02/06 22:22:32;;;;;;;;;27.25;25.50;;;;;;;;5090416;28;8927;-75
2024/02/06 22:24:58;;;;;;;;;29.25;27.50;;;;;;;;5094899;28;11508;-76
2024/02/06 22:27:23;;;;;;;;;29.25;26.00;;;;;;;;5087377;28;8774;-76
2024/02/06 22:29:48;;;;;;;;;25.25;23.00;;;;;;;;5086172;28;8790;-76
2024/02/06 22:32:13;;;;;;;;;27.75;23.50;;;;;;;;5087283;28;8810;-75
2024/02/06 22:34:39;;;;;;;;;28.50;25.50;;;;;;;;5086894;28;8811;-76
2024/02/06 22:37:04;;;;;;;;;27.50;25.50;;;;;;;;5086608;28;8889;-75
2024/02/06 22:39:29;;;;;;;;;34.75;23.25;;;;;;;;5086069;28;8875;-75
2024/02/06 22:41:55;;;;;;;;;29.00;26.00;;;;;;;;5086991;28;9550;-75
2024/02/06 22:44:20;;;;;;;;;24.75;24.50;;;;;;;;5085633;28;8807;-76
2024/02/06 22:46:45;;;;;;;;;32.75;25.00;;;;;;;;5087062;28;8786;-81
2024/02/06 22:49:11;;;;;;;;;32.50;24.75;;;;;;;;5086760;28;8817;-78
2024/02/06 22:51:37;;;;;;;;;29.50;27.75;;;;;;;;5086856;28;8913;-79
2024/02/06 22:54:08;;;;;;;;;26.50;21.00;;;;;;;;5079126;28;8771;-78
2024/02/06 22:56:36;;;;;;;;;28.75;24.00;;;;;;;;5073321;28;8805;-79
2024/02/06 22:59:02;;;;;;;;;24.25;21.25;;;;;;;;5073348;28;12280;-79
2024/02/06 23:01:27;;;;;;;;;25.75;22.50;;;;;;;;5073029;28;11488;-80
2024/02/06 23:03:53;;;;;;;;;27.50;25.00;;;;;;;;5073300;28;8783;-79
2024/02/06 23:06:19;;;;;;;;;29.25;25.50;;;;;;;;5072945;28;8821;-79
2024/02/06 23:08:44;;;;;;;;;31.75;26.00;;;;;;;;5073006;28;11608;-79
2024/02/06 23:11:09;;;;;;;;;21.75;20.75;;;;;;;;5073328;28;8895;-80
2024/02/06 23:13:35;;;;;;;;;26.00;23.25;;;;;;;;5073400;28;8825;-80
2024/02/06 23:16:00;;;;;;;;;28.25;22.00;;;;;;;;5088665;28;8803;-80
2024/02/06 23:18:26;;;;;;;;;27.00;20.00;;;;;;;;5072959;28;8806;-80
2024/02/06 23:20:51;;;;;;;;;23.25;23.25;;;;;;;;5071515;28;8798;-80
2024/02/06 23:23:17;;;;;;;;;24.50;23.00;;;;;;;;5073184;28;8810;-79
2024/02/06 23:25:42;;;;;;;;;23.25;21.75;;;;;;;;5072836;28;8770;-80
2024/02/06 23:28:08;;;;;;;;;19.75;19.00;;;;;;;;5072661;28;11519;-81
2024/02/06 23:30:33;;;;;;;;;22.00;18.25;;;;;;;;5072825;28;8790;-79
2024/02/06 23:32:58;;;;;;;;;23.00;21.00;;;;;;;;5072696;28;8799;-79
2024/02/06 23:35:24;;;;;;;;;25.25;23.00;;;;;;;;5072367;28;8825;-80
2024/02/06 23:37:49;;;;;;;;;19.00;18.75;;;;;;;;5072577;28;8813;-80
2024/02/06 23:40:15;;;;;;;;;20.75;18.00;;;;;;;;5072548;28;9496;-80
2024/02/06 23:42:40;;;;;;;;;21.25;18.75;;;;;;;;5088058;28;8838;-80
2024/02/06 23:45:05;;;;;;;;;15.00;12.75;;;;;;;;5072429;28;8799;-80
2024/02/06 23:47:31;;;;;;;;;15.75;15.75;;;;;;;;5088105;28;8891;-80
2024/02/06 23:49:56;;;;;;;;;15.25;14.75;;;;;;;;5087511;28;8802;-80
